CheckWX is a tool to help pilots better visualize weather data.  It is not intended as a substitute for an official pre-flight weather briefing.

07:10:17 UTC

KFAR TAF
Hector International Airport
Fargo, North Dakota, USA
KFAR 200532Z 2006/2106 01004KT P6SM -RA OVC090 FM200900 09006KT P6SM VCSH OVC080 FM201500 12010KT P6SM OVC070 FM201800 14013G19KT P6SM OVC050 FM202000 13013G18KT P6SM -SHRA BKN035 FM210300 12011KT P6SM BKN045

Jun-20@
06:00 UTC

Jun-20 @ 06:00 UTC

Jun-20@
09:00 UTC

Jun-20 @ 09:00 UTC

KFAR 200532Z 2006/2106 01004KT P6SM -RA OVC090
Wind
  • 010° at 4 KTS
Conditions
Light Rain
Cloud Levels
  • Overcast at 9,000' AGL

Jun-20@
09:00 UTC

Jun-20 @ 09:00 UTC

Jun-20@
15:00 UTC

Jun-20 @ 15:00 UTC

FM200900 09006KT P6SM VCSH OVC080

From

From Standard forecast or significant change

Wind
  • 090° at 6 KTS
Cloud Levels
  • Overcast at 8,000' AGL

Jun-20@
15:00 UTC

Jun-20 @ 15:00 UTC

Jun-20@
18:00 UTC

Jun-20 @ 18:00 UTC

FM201500 12010KT P6SM OVC070

From

From Standard forecast or significant change

Wind
  • 120° at 10 KTS
Cloud Levels
  • Overcast at 7,000' AGL

Jun-20@
18:00 UTC

Jun-20 @ 18:00 UTC

Jun-20@
20:00 UTC

Jun-20 @ 20:00 UTC

FM201800 14013G19KT P6SM OVC050

From

From Standard forecast or significant change

Wind
  • 140° at 13 KTS
  • {Gusting to 19 KTS
Cloud Levels
  • Overcast at 5,000' AGL

Jun-20@
20:00 UTC

Jun-20 @ 20:00 UTC

Jun-21@
03:00 UTC

Jun-21 @ 03:00 UTC

FM202000 13013G18KT P6SM -SHRA BKN035

From

From Standard forecast or significant change

Wind
  • 130° at 13 KTS
  • {Gusting to 18 KTS
Conditions
Light Rain
Cloud Levels
  • Broken at 3,500' AGL

Jun-21@
03:00 UTC

Jun-21 @ 03:00 UTC

Jun-21@
06:00 UTC

Jun-21 @ 06:00 UTC

FM210300 12011KT P6SM BKN045

From

From Standard forecast or significant change

Wind
  • 120° at 11 KTS
Cloud Levels
  • Broken at 4,500' AGL